»·PEaware :: N45DA KVNY-KPMD

N45DA :: KVNY-KPMD

FLIGHT INFORMATION

Flight Status: Arrived
Operator: Privately registered:
United States
More flights under this callsign
Pilot: Anonymous 44099 (44099)
Aircraft: CESSNA 172 SKYHAWK
(C172)
More flights by this aircraft type
Origin: KVNY Van Nuys
United States
Destination: KPMD Palmdale AF Plant 42
United States
More flights between these airports :: More routes between these airports
Route: NUAL1 PMD
File this flight plan on PilotEdge
Remarks:
Altitude:
(Current/Filed)
8,000ft
Speed:
(Current/Filed)
110kts
Departed: 11-Jun-23 10:50 AM
Arrived: 11-Jun-23 11:37 AM
Distance/Time
Traveled:
32nm/0:47
Distance/Time
To Go:
Arrived

Flight Plot

Page will automatically refresh every two minutes.

Flight plan parsing failed; only flown route is shown


Map Options




Map Legend


Flown Route
Filed Route
Departure Airport
Arrival Airport
Navaid (VOR, NDB)
Fix

Horizontal Profiles

Position Reports

Time Latitude Longitude Heading Altitude Ground
Speed
11-Jun-23 10:16 34.199771 -118.490958 66 805ft 0kts
11-Jun-23 10:17 34.199771 -118.490958 66 805ft 0kts
11-Jun-23 10:18 34.199771 -118.490958 66 805ft 0kts
11-Jun-23 10:19 34.199771 -118.490958 66 805ft 0kts
11-Jun-23 10:20 34.199771 -118.490958 66 805ft 0kts
11-Jun-23 10:21 34.199771 -118.490958 66 805ft 0kts
11-Jun-23 10:22 34.199771 -118.490958 66 805ft 0kts
11-Jun-23 10:23 34.199771 -118.490958 66 805ft 0kts
11-Jun-23 10:24 34.199771 -118.490958 66 805ft 0kts
11-Jun-23 10:25 34.199771 -118.490958 66 805ft 0kts
11-Jun-23 10:26 34.199771 -118.490958 66 805ft 0kts
11-Jun-23 10:27 34.199771 -118.490958 66 805ft 0kts
11-Jun-23 10:28 34.199771 -118.490958 66 805ft 0kts
11-Jun-23 10:29 34.199771 -118.490958 66 805ft 0kts
11-Jun-23 10:30 34.199771 -118.490958 66 805ft 0kts
11-Jun-23 10:31 34.199771 -118.490958 66 805ft 0kts
11-Jun-23 10:32 34.199771 -118.490958 66 805ft 0kts
11-Jun-23 10:33 34.201991 -118.490584 347 805ft 22kts
11-Jun-23 10:34 34.208311 -118.491397 356 805ft 29kts
11-Jun-23 10:35 34.214736 -118.492021 351 805ft 18kts
11-Jun-23 10:36 34.218664 -118.492174 48 805ft 0kts
11-Jun-23 10:37 34.218665 -118.492171 61 805ft 0kts
11-Jun-23 10:43 34.218665 -118.492171 61 805ft 0kts
11-Jun-23 10:44 34.218665 -118.492171 61 805ft 0kts
11-Jun-23 10:45 34.218665 -118.492171 61 805ft 0kts
11-Jun-23 10:46 34.218665 -118.492171 61 805ft 0kts
11-Jun-23 10:47 34.218665 -118.492171 61 805ft 0kts
11-Jun-23 10:48 34.218665 -118.492171 61 805ft 0kts
11-Jun-23 10:49 34.211758 -118.490538 175 834ft 81kts
11-Jun-23 10:50 34.188781 -118.490794 181 1637ft 81kts
11-Jun-23 10:51 34.168602 -118.483329 128 2327ft 83kts
11-Jun-23 10:52 34.154910 -118.459722 120 2935ft 88kts
11-Jun-23 10:53 34.159401 -118.433605 40 3546ft 101kts
11-Jun-23 10:54 34.186530 -118.427843 357 4191ft 101kts
11-Jun-23 10:55 34.214537 -118.432155 357 4739ft 103kts
11-Jun-23 10:56 34.242983 -118.437220 357 5283ft 102kts
11-Jun-23 10:57 34.271055 -118.442954 356 5809ft 101kts
11-Jun-23 10:58 34.298620 -118.448340 355 6291ft 103kts
11-Jun-23 10:59 34.325993 -118.453450 0 6829ft 93kts
11-Jun-23 11:00 34.353512 -118.459199 356 7078ft 112kts
11-Jun-23 11:01 34.382663 -118.458209 50 7105ft 98kts
11-Jun-23 11:02 34.400295 -118.431930 58 7022ft 102kts
11-Jun-23 11:03 34.416373 -118.404700 64 7058ft 99kts
11-Jun-23 11:04 34.432768 -118.376569 60 7023ft 102kts
11-Jun-23 11:05 34.449922 -118.349190 60 7049ft 102kts
11-Jun-23 11:06 34.467373 -118.321524 63 7037ft 104kts
11-Jun-23 11:07 34.485355 -118.292940 61 7001ft 110kts
11-Jun-23 11:08 34.504959 -118.263769 62 6997ft 110kts
11-Jun-23 11:09 34.524477 -118.233697 59 6980ft 114kts
11-Jun-23 11:10 34.545563 -118.203014 63 6863ft 122kts
11-Jun-23 11:11 34.559652 -118.169193 84 6942ft 108kts
11-Jun-23 11:12 34.569563 -118.134316 83 6930ft 111kts
11-Jun-23 11:13 34.579191 -118.099917 80 7017ft 106kts
11-Jun-23 11:14 34.588905 -118.065124 83 6983ft 110kts
11-Jun-23 11:15 34.598296 -118.029334 84 6969ft 109kts
11-Jun-23 11:16 34.608645 -117.993330 81 6953ft 109kts
11-Jun-23 11:17 34.618395 -117.958403 98 7021ft 103kts
11-Jun-23 11:18 34.625067 -117.922670 82 7002ft 112kts
11-Jun-23 11:19 34.636239 -117.886137 77 6972ft 117kts
11-Jun-23 11:20 34.648585 -117.849961 81 6988ft 114kts
11-Jun-23 11:21 34.659222 -117.814099 79 7054ft 110kts
11-Jun-23 11:22 34.661714 -117.778167 118 7028ft 96kts
11-Jun-23 11:23 34.677354 -117.758690 333 6964ft 125kts
11-Jun-23 11:24 34.692770 -117.794987 282 6427ft 122kts
11-Jun-23 11:25 34.713097 -117.828860 285 5718ft 117kts
11-Jun-23 11:26 34.714265 -117.862527 262 5101ft 100kts
11-Jun-23 11:27 34.710719 -117.892842 249 4584ft 83kts
11-Jun-23 11:28 34.705958 -117.916559 243 4201ft 66kts
11-Jun-23 11:29 34.700806 -117.937037 243 4265ft 64kts
11-Jun-23 11:30 34.696071 -117.958080 247 4258ft 66kts
11-Jun-23 11:31 34.687258 -117.977140 231 4079ft 61kts
11-Jun-23 11:32 34.676708 -117.994520 228 3645ft 62kts
11-Jun-23 11:33 34.666216 -118.012383 234 3244ft 65kts
11-Jun-23 11:34 34.656307 -118.031516 228 2856ft 65kts
11-Jun-23 11:35 34.646073 -118.046853 226 2761ft 58kts
11-Jun-23 11:36 34.637337 -118.060180 229 2522ft 37kts
11-Jun-23 11:37 34.630781 -118.070366 228 2501ft 53kts
11-Jun-23 11:38 34.614832 -118.072729 180 2528ft 61kts
11-Jun-23 11:39 34.612905 -118.074399 335 2535ft 0kts

Navigation Log

Ident Type
Flight plan parsing failed, navigation log unavailable